createdAt,value
2023-03-21T00:00:56.293Z,9.80
2023-03-21T00:03:22.993Z,9.74
2023-03-21T00:05:52.065Z,9.46
2023-03-21T00:08:19.224Z,9.80
2023-03-21T00:10:46.412Z,9.57
2023-03-21T00:13:14.336Z,9.49
2023-03-21T00:16:04.238Z,9.73
2023-03-21T00:18:36.707Z,9.80
2023-03-21T00:21:37.663Z,9.92
2023-03-21T00:23:52.069Z,10.02
2023-03-21T00:26:18.547Z,9.54
2023-03-21T00:28:45.151Z,9.98
2023-03-21T00:31:11.634Z,9.89
2023-03-21T00:33:39.518Z,9.87
2023-03-21T00:36:07.574Z,10.01
2023-03-21T00:38:35.644Z,10.10
2023-03-21T00:41:23.322Z,10.11
2023-03-21T00:43:57.516Z,9.96
2023-03-21T00:46:27.596Z,10.05
2023-03-21T00:48:56.631Z,10.05
2023-03-21T00:51:26.703Z,9.95
2023-03-21T00:53:58.528Z,9.77
2023-03-21T00:56:25.295Z,9.58
2023-03-21T00:58:51.981Z,9.96
2023-03-21T01:01:18.938Z,9.78
2023-03-21T01:03:48.151Z,9.67
2023-03-21T01:06:19.361Z,9.73
2023-03-21T01:08:52.612Z,9.71
2023-03-21T01:11:24.786Z,9.70
2023-03-21T01:13:59.601Z,9.70
2023-03-21T01:16:31.889Z,9.82
2023-03-21T01:18:59.674Z,9.78
2023-03-21T01:21:26.565Z,9.71
2023-03-21T01:23:53.080Z,9.60
2023-03-21T01:26:19.952Z,10.07
2023-03-21T01:28:47.010Z,9.84
2023-03-21T01:31:16.305Z,9.93
2023-03-21T01:33:43.872Z,9.90
2023-03-21T01:36:16.757Z,9.86
2023-03-21T01:38:43.892Z,9.99
2023-03-21T01:41:33.615Z,9.81
2023-03-21T01:44:07.369Z,10.13
2023-03-21T01:46:51.537Z,9.96
2023-03-21T01:49:27.849Z,10.25
2023-03-21T01:52:12.255Z,9.90
2023-03-21T01:54:41.972Z,9.73
2023-03-21T01:57:16.459Z,10.13
2023-03-21T01:59:46.745Z,10.11
2023-03-21T02:02:20.801Z,9.88
2023-03-21T02:04:51.276Z,9.96
2023-03-21T02:07:28.906Z,10.13
2023-03-21T02:12:28.486Z,9.95
2023-03-21T02:14:56.342Z,10.04
2023-03-21T02:17:47.587Z,9.28
2023-03-21T02:20:22.198Z,10.37
2023-03-21T02:23:26.107Z,10.38
2023-03-21T02:26:20.608Z,10.45
2023-03-21T02:29:04.315Z,10.49
2023-03-21T02:31:42.118Z,10.12
2023-03-21T02:34:20.726Z,10.48
2023-03-21T02:36:59.483Z,10.61
2023-03-21T02:39:32.297Z,10.32
2023-03-21T02:42:10.214Z,10.30
2023-03-21T02:44:50.460Z,10.42
2023-03-21T02:47:58.742Z,10.44
2023-03-21T02:50:33.482Z,10.45
2023-03-21T02:53:03.473Z,10.39
2023-03-21T02:55:32.435Z,10.13
2023-03-21T02:58:12.493Z,10.21
2023-03-21T03:00:40.630Z,10.19
2023-03-21T03:03:11.385Z,10.42
2023-03-21T03:05:48.126Z,10.28
2023-03-21T03:08:43.153Z,9.80
2023-03-21T03:11:29.529Z,10.23
2023-03-21T03:14:35.917Z,10.18
2023-03-21T03:17:12.302Z,10.22
2023-03-21T03:19:52.836Z,10.08
2023-03-21T03:22:26.713Z,10.31
2023-03-21T03:25:09.652Z,9.85
2023-03-21T03:27:47.465Z,10.38
2023-03-21T03:30:15.309Z,10.35
2023-03-21T03:32:50.218Z,10.33
2023-03-21T03:35:20.266Z,10.32
2023-03-21T03:37:53.587Z,10.22
2023-03-21T03:40:36.437Z,10.16
2023-03-21T03:43:12.095Z,10.34
2023-03-21T03:45:47.554Z,10.41
2023-03-21T03:48:19.479Z,10.39
2023-03-21T03:50:54.378Z,10.34
2023-03-21T03:53:27.104Z,10.42
2023-03-21T03:55:55.965Z,10.25
2023-03-21T03:58:29.186Z,9.99
2023-03-21T04:01:02.921Z,10.13
2023-03-21T04:03:39.260Z,10.22
2023-03-21T04:06:13.750Z,9.90
2023-03-21T04:08:40.852Z,10.29
2023-03-21T04:11:08.143Z,10.38
2023-03-21T04:13:34.700Z,10.44
2023-03-21T04:16:01.428Z,10.39
2023-03-21T04:18:28.168Z,10.68
2023-03-21T04:20:54.679Z,10.61
2023-03-21T04:23:21.684Z,10.44
2023-03-21T04:25:56.448Z,10.60
2023-03-21T04:28:23.532Z,10.67
2023-03-21T04:31:01.371Z,10.48
2023-03-21T04:33:31.454Z,10.51
2023-03-21T04:35:59.282Z,10.70
2023-03-21T04:38:30.747Z,10.73
2023-03-21T04:40:58.491Z,10.76
2023-03-21T04:43:25.042Z,10.62
2023-03-21T04:45:52.361Z,10.70
2023-03-21T04:48:19.694Z,10.71
2023-03-21T04:50:46.923Z,10.41
2023-03-21T04:53:13.465Z,10.75
2023-03-21T04:55:40.070Z,10.69
2023-03-21T04:58:06.820Z,10.87
2023-03-21T05:00:37.580Z,10.82
2023-03-21T05:03:09.357Z,10.76
2023-03-21T05:05:37.866Z,10.77
2023-03-21T05:08:06.184Z,10.56
2023-03-21T05:10:33.350Z,10.31
2023-03-21T05:13:00.233Z,10.13
2023-03-21T05:15:26.750Z,10.07
2023-03-21T05:17:53.224Z,10.36
2023-03-21T05:20:19.868Z,10.44
2023-03-21T05:22:50.257Z,10.00
2023-03-21T05:25:18.219Z,10.29
2023-03-21T05:27:45.491Z,10.11
2023-03-21T05:30:17.974Z,10.31
2023-03-21T05:32:44.618Z,10.41
2023-03-21T05:35:11.166Z,10.30
2023-03-21T05:37:38.492Z,10.49
2023-03-21T05:40:06.951Z,10.40
2023-03-21T05:42:33.477Z,10.39
2023-03-21T05:45:00.889Z,10.47
2023-03-21T05:47:27.401Z,10.43
2023-03-21T05:49:53.927Z,10.40
2023-03-21T05:52:20.545Z,10.08
2023-03-21T05:54:47.118Z,9.96
2023-03-21T05:57:13.881Z,10.44
2023-03-21T05:59:40.551Z,10.56
2023-03-21T06:02:07.058Z,10.06
2023-03-21T06:04:33.607Z,10.50
2023-03-21T06:07:00.126Z,10.44
2023-03-21T06:09:26.689Z,10.58
2023-03-21T06:11:55.983Z,10.69
2023-03-21T06:14:24.243Z,10.74
2023-03-21T06:16:51.132Z,10.61
2023-03-21T06:19:17.672Z,10.48
2023-03-21T06:21:44.234Z,10.75
2023-03-21T06:24:10.773Z,10.79
2023-03-21T06:26:37.792Z,10.87
2023-03-21T06:29:04.671Z,10.87
2023-03-21T06:31:31.517Z,10.79
2023-03-21T06:33:58.158Z,10.65
2023-03-21T06:36:25.271Z,10.70
2023-03-21T06:38:52.121Z,10.65
2023-03-21T06:41:18.786Z,10.59
2023-03-21T06:43:45.990Z,10.35
2023-03-21T06:46:12.519Z,10.65
2023-03-21T06:48:44.428Z,10.54
2023-03-21T06:51:12.829Z,10.59
2023-03-21T06:53:39.718Z,10.77
2023-03-21T06:56:06.514Z,10.82
2023-03-21T06:58:33.131Z,10.88
2023-03-21T07:01:01.725Z,10.75
2023-03-21T07:03:29.142Z,10.83
2023-03-21T07:05:56.213Z,10.88
2023-03-21T07:08:22.824Z,10.68
2023-03-21T07:13:30.672Z,10.60
2023-03-21T07:15:57.468Z,10.59
2023-03-21T07:18:24.313Z,10.94
2023-03-21T07:20:51.585Z,10.76
2023-03-21T07:23:23.021Z,10.97
2023-03-21T07:25:50.745Z,11.06
2023-03-21T07:28:18.185Z,11.12
2023-03-21T07:30:45.913Z,11.27
2023-03-21T07:33:12.908Z,10.58
2023-03-21T07:35:39.775Z,10.60
2023-03-21T07:38:06.931Z,10.69
2023-03-21T07:40:33.746Z,10.58
2023-03-21T07:43:00.222Z,10.75
2023-03-21T07:45:27.435Z,11.16
2023-03-21T07:47:53.987Z,10.78
2023-03-21T07:50:21.477Z,11.19
2023-03-21T07:52:48.619Z,11.37
2023-03-21T07:55:17.295Z,11.16
2023-03-21T07:57:44.260Z,11.29
2023-03-21T08:00:12.644Z,11.12
2023-03-21T08:02:39.248Z,11.28
2023-03-21T08:05:06.163Z,11.24
2023-03-21T08:07:32.608Z,11.00
2023-03-21T08:09:59.058Z,10.91
2023-03-21T08:12:25.715Z,10.86
2023-03-21T08:14:52.297Z,10.75
2023-03-21T08:17:18.960Z,11.03
2023-03-21T08:19:45.898Z,11.20
2023-03-21T08:22:12.530Z,11.00
2023-03-21T08:24:39.072Z,11.18
2023-03-21T08:27:05.908Z,10.93
2023-03-21T08:29:32.412Z,10.66
2023-03-21T08:31:58.878Z,10.93
2023-03-21T08:34:26.742Z,11.18
2023-03-21T08:36:53.285Z,10.93
2023-03-21T08:39:21.858Z,11.33
2023-03-21T08:41:48.495Z,11.41
2023-03-21T08:44:16.957Z,11.13
2023-03-21T08:46:43.573Z,11.32
2023-03-21T08:49:10.100Z,11.05
2023-03-21T08:51:37.714Z,11.03
2023-03-21T08:54:04.448Z,10.81
2023-03-21T08:56:31.231Z,10.92
2023-03-21T08:58:59.089Z,11.36
2023-03-21T09:01:26.712Z,11.18
2023-03-21T09:03:53.326Z,11.41
2023-03-21T09:06:19.843Z,11.58
2023-03-21T09:08:46.503Z,11.58
2023-03-21T09:11:13.256Z,11.57
2023-03-21T09:13:40.360Z,11.13
2023-03-21T09:16:07.425Z,11.23
2023-03-21T09:18:48.804Z,11.32
2023-03-21T09:21:18.511Z,11.47
2023-03-21T09:23:45.408Z,11.22
2023-03-21T09:26:12.614Z,11.50
2023-03-21T09:28:39.305Z,10.72
2023-03-21T09:31:08.378Z,11.08
2023-03-21T09:33:35.470Z,11.67
2023-03-21T09:36:03.788Z,11.53
2023-03-21T09:38:37.739Z,11.24
2023-03-21T09:41:26.352Z,11.64
2023-03-21T09:44:21.588Z,11.84
2023-03-21T09:47:04.696Z,12.04
2023-03-21T09:49:38.265Z,11.73
2023-03-21T09:52:13.388Z,12.24
2023-03-21T09:54:43.920Z,12.10
2023-03-21T09:57:37.423Z,12.04
2023-03-21T10:00:16.240Z,11.96
2023-03-21T10:02:47.254Z,11.86
2023-03-21T10:05:20.383Z,12.17
2023-03-21T10:08:05.701Z,12.15
2023-03-21T10:10:37.384Z,12.07
2023-03-21T10:13:12.111Z,11.71
2023-03-21T10:15:38.834Z,11.60
2023-03-21T10:18:07.687Z,12.04
2023-03-21T10:20:37.874Z,11.85
2023-03-21T10:23:07.991Z,12.05
2023-03-21T10:25:42.133Z,12.24
2023-03-21T10:28:19.403Z,12.33
2023-03-21T10:30:56.811Z,12.40
2023-03-21T10:33:29.559Z,12.29
2023-03-21T10:36:00.135Z,12.32
2023-03-21T10:38:27.414Z,12.22
2023-03-21T10:40:54.387Z,12.09
2023-03-21T10:43:27.054Z,12.22
2023-03-21T10:45:57.477Z,11.94
2023-03-21T10:48:24.782Z,11.68
2023-03-21T10:50:55.723Z,11.80
2023-03-21T10:53:32.392Z,12.28
2023-03-21T10:56:06.706Z,12.34
2023-03-21T10:58:39.573Z,12.33
2023-03-21T11:01:10.094Z,11.70
2023-03-21T11:03:39.318Z,12.07
2023-03-21T11:06:10.097Z,12.24
2023-03-21T11:08:44.140Z,11.70
2023-03-21T11:11:20.253Z,11.84
2023-03-21T11:13:56.683Z,12.01
2023-03-21T11:16:27.343Z,11.90
2023-03-21T11:19:01.500Z,11.99
2023-03-21T11:21:29.736Z,11.93
2023-03-21T11:23:58.455Z,12.25
2023-03-21T11:26:32.537Z,11.82
2023-03-21T11:28:59.339Z,12.12
2023-03-21T11:31:42.029Z,12.07
2023-03-21T11:34:09.956Z,12.16
2023-03-21T11:36:41.597Z,12.24
2023-03-21T11:39:11.240Z,12.35
2023-03-21T11:41:41.694Z,12.42
2023-03-21T11:44:26.582Z,12.57
2023-03-21T11:46:54.409Z,12.70
2023-03-21T11:49:22.041Z,12.50
2023-03-21T11:52:14.146Z,12.44
2023-03-21T11:54:50.008Z,11.98
2023-03-21T11:57:57.965Z,12.14
2023-03-21T12:00:30.234Z,12.20
2023-03-21T12:03:46.856Z,12.57
2023-03-21T12:06:35.163Z,12.07
2023-03-21T12:09:20.891Z,11.83
2023-03-21T12:12:02.372Z,12.59
2023-03-21T12:14:46.647Z,12.39
2023-03-21T12:17:43.240Z,12.39
2023-03-21T12:20:21.629Z,12.61
2023-03-21T12:22:52.731Z,12.76
2023-03-21T12:25:27.885Z,12.62
2023-03-21T12:28:30.128Z,12.45
2023-03-21T12:31:08.129Z,12.75
2023-03-21T12:34:13.198Z,12.28
2023-03-21T12:36:39.595Z,12.79
2023-03-21T12:39:22.722Z,12.56
2023-03-21T12:42:01.424Z,12.57
2023-03-21T12:44:33.352Z,12.13
2023-03-21T12:47:06.836Z,12.47
2023-03-21T12:49:41.619Z,12.20
2023-03-21T12:52:14.536Z,12.28
2023-03-21T12:54:59.270Z,12.50
2023-03-21T12:57:34.865Z,12.71
2023-03-21T13:00:15.605Z,12.36
2023-03-21T13:02:49.258Z,12.32
2023-03-21T13:05:25.282Z,12.31
2023-03-21T13:08:12.215Z,11.99
2023-03-21T13:10:41.213Z,12.39
2023-03-21T13:13:21.908Z,12.56
2023-03-21T13:16:00.788Z,12.54
2023-03-21T13:18:33.252Z,12.69
2023-03-21T13:21:26.570Z,12.40
2023-03-21T13:24:00.484Z,12.32
2023-03-21T13:26:51.371Z,12.49
2023-03-21T13:29:28.136Z,12.32
2023-03-21T13:31:59.861Z,12.29
2023-03-21T13:34:26.918Z,12.30
2023-03-21T13:36:56.553Z,12.25
2023-03-21T13:39:28.770Z,12.37
2023-03-21T13:41:56.033Z,12.27
2023-03-21T13:44:50.303Z,12.23
2023-03-21T13:47:31.788Z,12.35
2023-03-21T13:50:20.365Z,12.59
2023-03-21T13:53:02.250Z,12.89
2023-03-21T13:55:31.094Z,12.66
2023-03-21T13:57:57.654Z,12.60
2023-03-21T14:00:31.043Z,12.02
2023-03-21T14:03:20.629Z,12.09
2023-03-21T14:05:51.379Z,12.46
2023-03-21T14:08:31.320Z,12.46
2023-03-21T14:11:10.078Z,12.51
2023-03-21T14:13:48.253Z,12.17
2023-03-21T14:16:18.782Z,12.33
2023-03-21T14:18:56.002Z,12.15
2023-03-21T14:21:29.499Z,11.99
2023-03-21T14:24:00.777Z,11.88
2023-03-21T14:26:42.105Z,11.74
2023-03-21T14:29:25.555Z,11.73
2023-03-21T14:31:53.776Z,11.96
2023-03-21T14:34:20.538Z,11.85
2023-03-21T14:36:56.890Z,11.68
2023-03-21T14:39:29.449Z,11.67
2023-03-21T14:42:02.571Z,11.91
2023-03-21T14:44:58.106Z,11.81
2023-03-21T14:47:28.050Z,11.70
2023-03-21T14:49:56.436Z,11.81
2023-03-21T14:52:32.365Z,11.63
2023-03-21T14:55:00.892Z,11.47
2023-03-21T14:57:31.090Z,11.61
2023-03-21T15:00:01.955Z,11.99
2023-03-21T15:02:34.525Z,11.95
2023-03-21T15:05:20.363Z,11.82
2023-03-21T15:07:56.554Z,11.86
2023-03-21T15:10:24.036Z,11.71
2023-03-21T15:12:59.031Z,11.73
2023-03-21T15:15:28.150Z,12.01
2023-03-21T15:17:59.539Z,11.48
2023-03-21T15:20:32.167Z,11.84
2023-03-21T15:23:03.957Z,12.13
2023-03-21T15:25:34.832Z,11.82
2023-03-21T15:28:02.031Z,12.44
2023-03-21T15:30:30.898Z,12.54
2023-03-21T15:33:05.094Z,12.50
2023-03-21T15:35:44.562Z,12.40
2023-03-21T15:38:33.458Z,12.16
2023-03-21T15:41:25.797Z,12.24
2023-03-21T15:44:09.653Z,11.82
2023-03-21T15:46:47.787Z,11.82
2023-03-21T15:49:17.201Z,12.02
2023-03-21T15:51:47.651Z,11.95
2023-03-21T15:54:17.761Z,11.93
2023-03-21T15:56:46.139Z,12.37
2023-03-21T15:59:17.953Z,11.80
2023-03-21T16:01:48.869Z,12.09
2023-03-21T16:04:16.372Z,11.88
2023-03-21T16:06:53.717Z,11.72
2023-03-21T16:09:26.402Z,11.98
2023-03-21T16:11:55.808Z,12.12
2023-03-21T16:14:23.630Z,11.95
2023-03-21T16:16:51.002Z,12.04
2023-03-21T16:19:18.316Z,12.12
2023-03-21T16:21:44.896Z,11.66
2023-03-21T16:24:13.495Z,11.79
2023-03-21T16:26:47.668Z,11.57
2023-03-21T16:29:15.739Z,12.16
2023-03-21T16:31:42.447Z,12.14
2023-03-21T16:34:09.375Z,12.08
2023-03-21T16:36:38.453Z,11.90
2023-03-21T16:39:16.349Z,12.07
2023-03-21T16:41:42.879Z,12.17
2023-03-21T16:44:09.387Z,12.04
2023-03-21T16:46:35.983Z,11.77
2023-03-21T16:49:02.576Z,11.81
2023-03-21T16:51:35.032Z,12.03
2023-03-21T16:54:02.897Z,11.83
2023-03-21T16:56:41.930Z,12.14
2023-03-21T16:59:12.704Z,12.31
2023-03-21T17:01:41.393Z,12.18
2023-03-21T17:04:09.068Z,11.79
2023-03-21T17:06:44.620Z,11.91
2023-03-21T17:09:13.283Z,12.01
2023-03-21T17:11:41.665Z,11.63
2023-03-21T17:14:10.373Z,11.62
2023-03-21T17:16:36.928Z,11.88
2023-03-21T17:19:06.871Z,11.95
2023-03-21T17:21:34.687Z,11.96
2023-03-21T17:24:01.534Z,11.93
2023-03-21T17:26:29.413Z,11.90
2023-03-21T17:28:57.024Z,11.35
2023-03-21T17:31:25.449Z,11.60
2023-03-21T17:33:52.019Z,11.74
2023-03-21T17:36:30.569Z,11.66
2023-03-21T17:38:57.919Z,11.66
2023-03-21T17:41:24.568Z,11.95
2023-03-21T17:43:51.938Z,11.80
2023-03-21T17:46:22.388Z,11.67
2023-03-21T17:48:49.327Z,11.65
2023-03-21T17:51:17.268Z,11.60
2023-03-21T17:53:45.454Z,11.55
2023-03-21T17:56:18.996Z,11.81
2023-03-21T17:58:45.719Z,11.82
2023-03-21T18:01:12.179Z,11.85
2023-03-21T18:03:39.154Z,11.61
2023-03-21T18:06:06.374Z,11.56
2023-03-21T18:08:33.106Z,11.46
2023-03-21T18:10:59.661Z,11.73
2023-03-21T18:13:26.467Z,11.24
2023-03-21T18:15:53.130Z,11.14
2023-03-21T18:18:19.814Z,11.47
2023-03-21T18:20:52.577Z,11.30
2023-03-21T18:23:20.872Z,11.68
2023-03-21T18:25:47.805Z,11.55
2023-03-21T18:28:19.444Z,11.65
2023-03-21T18:33:40.614Z,11.64
2023-03-21T18:36:09.121Z,11.47
2023-03-21T18:38:37.076Z,11.47
2023-03-21T18:41:04.283Z,11.55
2023-03-21T18:46:17.943Z,11.38
2023-03-21T18:48:44.677Z,11.20
2023-03-21T18:51:11.536Z,11.68
2023-03-21T18:53:38.130Z,11.40
2023-03-21T18:56:09.928Z,11.55
2023-03-21T18:58:37.140Z,11.53
2023-03-21T19:01:05.075Z,11.41
2023-03-21T19:03:36.672Z,11.40
2023-03-21T19:06:05.518Z,11.76
2023-03-21T19:08:34.836Z,11.74
2023-03-21T19:11:06.044Z,11.85
2023-03-21T19:13:33.550Z,11.21
2023-03-21T19:16:02.344Z,11.57
2023-03-21T19:18:50.356Z,11.28
2023-03-21T19:21:21.545Z,11.61
2023-03-21T19:24:22.984Z,11.38
2023-03-21T19:26:34.594Z,11.32
2023-03-21T19:29:01.364Z,11.25
2023-03-21T19:31:27.898Z,11.45
2023-03-21T19:33:54.500Z,11.28
2023-03-21T19:36:23.149Z,11.74
2023-03-21T19:38:51.005Z,11.54
2023-03-21T19:41:18.588Z,11.49
2023-03-21T19:43:53.545Z,11.55
2023-03-21T19:46:23.192Z,11.34
2023-03-21T19:48:50.278Z,11.60
2023-03-21T19:51:28.636Z,11.35
2023-03-21T19:53:56.897Z,11.51
2023-03-21T19:56:26.745Z,11.44
2023-03-21T19:58:55.039Z,11.64
2023-03-21T20:01:22.109Z,11.49
2023-03-21T20:03:48.685Z,11.55
2023-03-21T20:06:16.229Z,11.61
2023-03-21T20:09:17.215Z,11.73
2023-03-21T20:11:29.232Z,11.72
2023-03-21T20:13:56.344Z,11.54
2023-03-21T20:16:23.159Z,11.57
2023-03-21T20:18:49.792Z,11.80
2023-03-21T20:21:18.444Z,11.51
2023-03-21T20:23:50.959Z,11.72
2023-03-21T20:26:18.420Z,11.80
2023-03-21T20:29:00.256Z,11.65
2023-03-21T20:31:37.700Z,11.54
2023-03-21T20:34:04.471Z,11.40
2023-03-21T20:36:40.063Z,11.69
2023-03-21T20:39:06.911Z,11.78
2023-03-21T20:41:33.438Z,11.38
2023-03-21T20:46:48.064Z,11.70
2023-03-21T20:49:15.620Z,11.75
2023-03-21T20:54:29.937Z,11.74
2023-03-21T20:56:57.281Z,11.65
2023-03-21T20:59:27.737Z,11.72
2023-03-21T21:01:56.211Z,11.54
2023-03-21T21:04:39.500Z,11.91
2023-03-21T21:07:15.925Z,11.96
2023-03-21T21:09:46.956Z,11.98
2023-03-21T21:12:15.078Z,11.32
2023-03-21T21:14:43.081Z,11.95
2023-03-21T21:17:28.366Z,11.98
2023-03-21T21:19:57.126Z,11.87
2023-03-21T21:22:23.936Z,11.96
2023-03-21T21:24:50.414Z,11.89
2023-03-21T21:27:17.014Z,11.61
2023-03-21T21:29:43.683Z,11.82
2023-03-21T21:32:11.373Z,11.83
2023-03-21T21:34:38.253Z,11.51
2023-03-21T21:37:05.197Z,11.50
2023-03-21T21:39:37.947Z,11.84
2023-03-21T21:42:05.460Z,11.84
2023-03-21T21:44:31.984Z,11.96
2023-03-21T21:46:59.167Z,11.72
2023-03-21T21:49:26.763Z,11.86
2023-03-21T21:51:53.314Z,12.15
2023-03-21T21:54:19.830Z,11.95
2023-03-21T21:56:49.214Z,12.24
2023-03-21T21:59:18.521Z,12.10
2023-03-21T22:01:46.790Z,12.20
2023-03-21T22:04:14.562Z,12.14
2023-03-21T22:06:42.256Z,12.26
2023-03-21T22:09:09.000Z,12.18
2023-03-21T22:11:35.932Z,12.26
2023-03-21T22:14:03.059Z,11.95
2023-03-21T22:16:29.678Z,12.42
2023-03-21T22:18:56.280Z,12.02
2023-03-21T22:21:23.004Z,11.98
2023-03-21T22:23:49.641Z,11.87
2023-03-21T22:26:16.432Z,12.15
2023-03-21T22:28:43.577Z,12.00
2023-03-21T22:31:15.814Z,12.07
2023-03-21T22:33:43.506Z,11.90
2023-03-21T22:36:10.766Z,11.41
2023-03-21T22:38:38.276Z,11.97
2023-03-21T22:41:06.642Z,11.89
2023-03-21T22:43:34.396Z,12.14
2023-03-21T22:46:03.248Z,11.93
2023-03-21T22:48:30.286Z,12.03
2023-03-21T22:50:58.409Z,11.94
2023-03-21T22:53:25.523Z,12.02
2023-03-21T22:55:52.042Z,11.79
2023-03-21T22:58:18.629Z,11.71
2023-03-21T23:00:45.576Z,11.31
2023-03-21T23:03:13.088Z,11.58
2023-03-21T23:05:41.176Z,11.64
2023-03-21T23:08:07.685Z,11.55
2023-03-21T23:10:37.008Z,11.53
2023-03-21T23:13:04.207Z,11.70
2023-03-21T23:15:30.691Z,11.62
2023-03-21T23:17:57.176Z,11.44
2023-03-21T23:20:23.613Z,11.28
2023-03-21T23:22:50.065Z,11.16
2023-03-21T23:25:17.004Z,11.14
2023-03-21T23:27:43.576Z,10.99
2023-03-21T23:30:10.398Z,11.15
2023-03-21T23:32:36.911Z,11.33
2023-03-21T23:35:03.746Z,11.16
2023-03-21T23:37:30.232Z,11.13
2023-03-21T23:39:56.937Z,11.16
2023-03-21T23:42:25.135Z,11.02
2023-03-21T23:44:51.580Z,10.79
2023-03-21T23:47:18.092Z,10.77
2023-03-21T23:49:49.309Z,10.81
2023-03-21T23:52:16.194Z,11.07
2023-03-21T23:54:42.691Z,11.03
2023-03-21T23:57:09.378Z,10.82
2023-03-21T23:59:36.056Z,10.82
